Colon, North Carolina
Current Conditions -  °F | °C
As of 7:15 PM on Friday 21 Nov 2014 (Local Time) from KTTA Reporting Station
Clear Clear  
Wind Chill:   Ceiling: Unl
Heat Index:   Visibility: 10mi
Dew Point: -7°   Wind: 0mph
Humidity: 61%   Direction: NA
Pressure: 30.5"   Gusts: NA
Location:  35.493°N, 79.1765°W
Report Text: KTTA 220015Z AUTO 00000KT 10SM CLR 00/M07 A3050 RMK AO2 T00001068
Loading
Personal Weather Stations






























Interactive Weather Map New forecast layout! Learn more

10-Day Weather Forecast

Advertisements
Track Severe Weather on mobile